sensor_id;sensor_type;location;lat;lon;timestamp;P1;durP1;ratioP1;P2;durP2;ratioP2
4309;SDS011;2168;53.576;9.980;2022-11-20T00:00:18;5.00;;;2.47;;
4309;SDS011;2168;53.576;9.980;2022-11-20T00:02:43;3.23;;;2.60;;
4309;SDS011;2168;53.576;9.980;2022-11-20T00:05:08;6.50;;;2.77;;
4309;SDS011;2168;53.576;9.980;2022-11-20T00:07:33;3.60;;;2.53;;
4309;SDS011;2168;53.576;9.980;2022-11-20T00:09:58;3.10;;;2.60;;
4309;SDS011;2168;53.576;9.980;2022-11-20T00:12:24;3.37;;;2.43;;
4309;SDS011;2168;53.576;9.980;2022-11-20T00:14:49;3.87;;;2.40;;
4309;SDS011;2168;53.576;9.980;2022-11-20T00:17:14;2.67;;;2.20;;
4309;SDS011;2168;53.576;9.980;2022-11-20T00:19:39;2.40;;;2.20;;
4309;SDS011;2168;53.576;9.980;2022-11-20T00:22:04;2.30;;;2.10;;
4309;SDS011;2168;53.576;9.980;2022-11-20T00:24:30;3.67;;;2.33;;
4309;SDS011;2168;53.576;9.980;2022-11-20T00:26:55;3.70;;;2.03;;
4309;SDS011;2168;53.576;9.980;2022-11-20T00:29:20;2.53;;;2.33;;
4309;SDS011;2168;53.576;9.980;2022-11-20T00:31:45;2.80;;;2.60;;
4309;SDS011;2168;53.576;9.980;2022-11-20T00:34:10;3.17;;;2.50;;
4309;SDS011;2168;53.576;9.980;2022-11-20T00:36:36;3.20;;;2.40;;
4309;SDS011;2168;53.576;9.980;2022-11-20T00:39:01;2.97;;;2.40;;
4309;SDS011;2168;53.576;9.980;2022-11-20T00:41:27;3.33;;;2.20;;
4309;SDS011;2168;53.576;9.980;2022-11-20T00:43:53;2.13;;;2.03;;
4309;SDS011;2168;53.576;9.980;2022-11-20T00:46:19;3.53;;;2.43;;
4309;SDS011;2168;53.576;9.980;2022-11-20T00:48:44;5.03;;;2.30;;
4309;SDS011;2168;53.576;9.980;2022-11-20T00:51:10;3.33;;;2.33;;
4309;SDS011;2168;53.576;9.980;2022-11-20T00:53:37;3.60;;;2.77;;
4309;SDS011;2168;53.576;9.980;2022-11-20T00:56:03;2.73;;;2.30;;
4309;SDS011;2168;53.576;9.980;2022-11-20T00:58:29;2.73;;;2.43;;
4309;SDS011;2168;53.576;9.980;2022-11-20T01:00:59;4.33;;;3.23;;
4309;SDS011;2168;53.576;9.980;2022-11-20T01:03:24;3.17;;;2.90;;
4309;SDS011;2168;53.576;9.980;2022-11-20T01:05:50;2.80;;;2.60;;
4309;SDS011;2168;53.576;9.980;2022-11-20T01:08:15;2.47;;;2.33;;
4309;SDS011;2168;53.576;9.980;2022-11-20T01:10:40;4.00;;;2.03;;
4309;SDS011;2168;53.576;9.980;2022-11-20T01:13:05;3.77;;;2.33;;
4309;SDS011;2168;53.576;9.980;2022-11-20T01:15:49;4.10;;;3.30;;
4309;SDS011;2168;53.576;9.980;2022-11-20T01:18:14;2.50;;;2.30;;
4309;SDS011;2168;53.576;9.980;2022-11-20T01:20:40;2.83;;;2.53;;
4309;SDS011;2168;53.576;9.980;2022-11-20T01:23:05;2.67;;;2.20;;
4309;SDS011;2168;53.576;9.980;2022-11-20T01:25:30;3.27;;;2.60;;
4309;SDS011;2168;53.576;9.980;2022-11-20T01:27:55;4.30;;;2.40;;
4309;SDS011;2168;53.576;9.980;2022-11-20T01:30:21;6.50;;;2.60;;
4309;SDS011;2168;53.576;9.980;2022-11-20T01:32:46;3.63;;;2.77;;
4309;SDS011;2168;53.576;9.980;2022-11-20T01:35:11;4.23;;;2.70;;
4309;SDS011;2168;53.576;9.980;2022-11-20T01:37:36;3.00;;;2.70;;
4309;SDS011;2168;53.576;9.980;2022-11-20T01:40:01;4.43;;;2.17;;
4309;SDS011;2168;53.576;9.980;2022-11-20T01:42:27;2.53;;;2.17;;
4309;SDS011;2168;53.576;9.980;2022-11-20T01:47:55;4.63;;;2.50;;
4309;SDS011;2168;53.576;9.980;2022-11-20T01:50:24;2.40;;;2.30;;
4309;SDS011;2168;53.576;9.980;2022-11-20T01:55:47;3.20;;;2.63;;
4309;SDS011;2168;53.576;9.980;2022-11-20T01:58:13;2.73;;;2.50;;
4309;SDS011;2168;53.576;9.980;2022-11-20T02:00:38;3.83;;;2.67;;
4309;SDS011;2168;53.576;9.980;2022-11-20T02:03:05;4.27;;;3.07;;
4309;SDS011;2168;53.576;9.980;2022-11-20T02:08:03;3.00;;;2.53;;
4309;SDS011;2168;53.576;9.980;2022-11-20T02:10:29;3.60;;;2.70;;
4309;SDS011;2168;53.576;9.980;2022-11-20T02:12:54;2.73;;;2.10;;
4309;SDS011;2168;53.576;9.980;2022-11-20T02:15:38;4.70;;;2.97;;
4309;SDS011;2168;53.576;9.980;2022-11-20T02:18:04;2.93;;;2.63;;
4309;SDS011;2168;53.576;9.980;2022-11-20T02:20:30;2.57;;;2.37;;
4309;SDS011;2168;53.576;9.980;2022-11-20T02:23:08;3.50;;;2.60;;
4309;SDS011;2168;53.576;9.980;2022-11-20T02:25:35;2.93;;;2.73;;
4309;SDS011;2168;53.576;9.980;2022-11-20T02:28:01;2.73;;;2.53;;
4309;SDS011;2168;53.576;9.980;2022-11-20T02:30:27;2.47;;;2.27;;
4309;SDS011;2168;53.576;9.980;2022-11-20T02:32:52;2.30;;;2.20;;
4309;SDS011;2168;53.576;9.980;2022-11-20T02:37:42;4.13;;;2.90;;
4309;SDS011;2168;53.576;9.980;2022-11-20T02:40:08;2.63;;;2.47;;
4309;SDS011;2168;53.576;9.980;2022-11-20T02:42:34;3.30;;;2.80;;
4309;SDS011;2168;53.576;9.980;2022-11-20T02:44:59;4.37;;;2.73;;
4309;SDS011;2168;53.576;9.980;2022-11-20T02:47:24;4.67;;;2.63;;
4309;SDS011;2168;53.576;9.980;2022-11-20T02:49:49;3.93;;;2.90;;
4309;SDS011;2168;53.576;9.980;2022-11-20T02:52:14;4.23;;;2.70;;
4309;SDS011;2168;53.576;9.980;2022-11-20T02:54:40;4.20;;;2.73;;
4309;SDS011;2168;53.576;9.980;2022-11-20T02:57:05;3.17;;;2.93;;
4309;SDS011;2168;53.576;9.980;2022-11-20T02:59:30;3.10;;;2.60;;
4309;SDS011;2168;53.576;9.980;2022-11-20T03:01:56;3.27;;;2.80;;
4309;SDS011;2168;53.576;9.980;2022-11-20T03:04:21;5.07;;;2.67;;
4309;SDS011;2168;53.576;9.980;2022-11-20T03:06:46;8.13;;;3.33;;
4309;SDS011;2168;53.576;9.980;2022-11-20T03:09:12;3.97;;;2.67;;
4309;SDS011;2168;53.576;9.980;2022-11-20T03:11:37;3.10;;;2.83;;
4309;SDS011;2168;53.576;9.980;2022-11-20T03:14:03;2.90;;;2.50;;
4309;SDS011;2168;53.576;9.980;2022-11-20T03:16:28;3.20;;;2.80;;
4309;SDS011;2168;53.576;9.980;2022-11-20T03:18:53;2.70;;;2.50;;
4309;SDS011;2168;53.576;9.980;2022-11-20T03:21:19;3.13;;;2.83;;
4309;SDS011;2168;53.576;9.980;2022-11-20T03:23:44;2.43;;;2.23;;
4309;SDS011;2168;53.576;9.980;2022-11-20T03:26:10;2.63;;;2.43;;
4309;SDS011;2168;53.576;9.980;2022-11-20T03:28:36;2.80;;;2.60;;
4309;SDS011;2168;53.576;9.980;2022-11-20T03:31:06;4.87;;;3.00;;
4309;SDS011;2168;53.576;9.980;2022-11-20T03:33:31;2.70;;;2.50;;
4309;SDS011;2168;53.576;9.980;2022-11-20T03:36:00;3.20;;;2.90;;
4309;SDS011;2168;53.576;9.980;2022-11-20T03:38:25;3.80;;;2.73;;
4309;SDS011;2168;53.576;9.980;2022-11-20T03:40:50;2.87;;;2.47;;
4309;SDS011;2168;53.576;9.980;2022-11-20T03:43:15;3.47;;;3.10;;
4309;SDS011;2168;53.576;9.980;2022-11-20T03:45:41;4.47;;;3.13;;
4309;SDS011;2168;53.576;9.980;2022-11-20T03:48:06;2.97;;;2.77;;
4309;SDS011;2168;53.576;9.980;2022-11-20T03:50:31;2.77;;;2.53;;
4309;SDS011;2168;53.576;9.980;2022-11-20T03:52:56;5.20;;;2.70;;
4309;SDS011;2168;53.576;9.980;2022-11-20T03:55:21;2.80;;;2.60;;
4309;SDS011;2168;53.576;9.980;2022-11-20T03:57:47;3.87;;;3.03;;
4309;SDS011;2168;53.576;9.980;2022-11-20T04:00:12;3.70;;;2.83;;
4309;SDS011;2168;53.576;9.980;2022-11-20T04:02:37;3.30;;;3.00;;
4309;SDS011;2168;53.576;9.980;2022-11-20T04:05:03;2.77;;;2.57;;
4309;SDS011;2168;53.576;9.980;2022-11-20T04:07:28;5.20;;;2.80;;
4309;SDS011;2168;53.576;9.980;2022-11-20T04:09:53;3.47;;;3.00;;
4309;SDS011;2168;53.576;9.980;2022-11-20T04:12:18;2.77;;;2.57;;
4309;SDS011;2168;53.576;9.980;2022-11-20T04:14:43;3.53;;;3.23;;
4309;SDS011;2168;53.576;9.980;2022-11-20T04:17:09;3.53;;;2.60;;
4309;SDS011;2168;53.576;9.980;2022-11-20T04:19:34;2.87;;;2.67;;
4309;SDS011;2168;53.576;9.980;2022-11-20T04:21:59;7.70;;;2.67;;
4309;SDS011;2168;53.576;9.980;2022-11-20T04:24:24;4.10;;;3.07;;
4309;SDS011;2168;53.576;9.980;2022-11-20T04:26:49;5.20;;;2.73;;
4309;SDS011;2168;53.576;9.980;2022-11-20T04:29:14;2.60;;;2.40;;
4309;SDS011;2168;53.576;9.980;2022-11-20T04:31:40;4.30;;;2.67;;
4309;SDS011;2168;53.576;9.980;2022-11-20T04:34:05;3.57;;;3.17;;
4309;SDS011;2168;53.576;9.980;2022-11-20T04:36:31;2.67;;;2.43;;
4309;SDS011;2168;53.576;9.980;2022-11-20T04:38:57;2.70;;;2.50;;
4309;SDS011;2168;53.576;9.980;2022-11-20T04:41:24;3.43;;;2.67;;
4309;SDS011;2168;53.576;9.980;2022-11-20T04:43:51;3.10;;;2.80;;
4309;SDS011;2168;53.576;9.980;2022-11-20T04:46:17;5.33;;;2.40;;
4309;SDS011;2168;53.576;9.980;2022-11-20T04:48:43;3.53;;;3.23;;
4309;SDS011;2168;53.576;9.980;2022-11-20T04:51:08;3.50;;;2.53;;
4309;SDS011;2168;53.576;9.980;2022-11-20T04:53:33;2.63;;;2.43;;
4309;SDS011;2168;53.576;9.980;2022-11-20T04:55:59;2.57;;;2.30;;
4309;SDS011;2168;53.576;9.980;2022-11-20T04:58:25;3.10;;;2.80;;
4309;SDS011;2168;53.576;9.980;2022-11-20T05:00:50;3.03;;;2.70;;
4309;SDS011;2168;53.576;9.980;2022-11-20T05:03:16;3.03;;;2.73;;
4309;SDS011;2168;53.576;9.980;2022-11-20T05:05:41;3.00;;;2.73;;
4309;SDS011;2168;53.576;9.980;2022-11-20T05:08:07;2.70;;;2.50;;
4309;SDS011;2168;53.576;9.980;2022-11-20T05:10:32;7.07;;;2.80;;
4309;SDS011;2168;53.576;9.980;2022-11-20T05:12:57;2.43;;;2.23;;
4309;SDS011;2168;53.576;9.980;2022-11-20T05:15:22;4.13;;;3.07;;
4309;SDS011;2168;53.576;9.980;2022-11-20T05:17:48;4.97;;;2.70;;
4309;SDS011;2168;53.576;9.980;2022-11-20T05:20:14;5.00;;;3.43;;
4309;SDS011;2168;53.576;9.980;2022-11-20T05:22:39;3.20;;;2.90;;
4309;SDS011;2168;53.576;9.980;2022-11-20T05:25:04;3.70;;;2.90;;
4309;SDS011;2168;53.576;9.980;2022-11-20T05:27:30;4.23;;;3.27;;
4309;SDS011;2168;53.576;9.980;2022-11-20T05:29:55;3.73;;;2.80;;
4309;SDS011;2168;53.576;9.980;2022-11-20T05:32:20;3.13;;;2.93;;
4309;SDS011;2168;53.576;9.980;2022-11-20T05:34:45;3.33;;;3.07;;
4309;SDS011;2168;53.576;9.980;2022-11-20T05:37:10;3.33;;;3.03;;
4309;SDS011;2168;53.576;9.980;2022-11-20T05:39:35;3.40;;;3.10;;
4309;SDS011;2168;53.576;9.980;2022-11-20T05:42:01;3.87;;;3.00;;
4309;SDS011;2168;53.576;9.980;2022-11-20T05:44:44;3.30;;;3.00;;
4309;SDS011;2168;53.576;9.980;2022-11-20T05:47:09;3.83;;;3.20;;
4309;SDS011;2168;53.576;9.980;2022-11-20T05:49:35;3.50;;;3.20;;
4309;SDS011;2168;53.576;9.980;2022-11-20T05:52:00;2.80;;;2.60;;
4309;SDS011;2168;53.576;9.980;2022-11-20T05:54:25;3.73;;;3.07;;
4309;SDS011;2168;53.576;9.980;2022-11-20T05:56:50;3.13;;;2.93;;
4309;SDS011;2168;53.576;9.980;2022-11-20T05:59:16;3.53;;;3.07;;
4309;SDS011;2168;53.576;9.980;2022-11-20T06:01:41;4.43;;;3.17;;
4309;SDS011;2168;53.576;9.980;2022-11-20T06:04:06;7.13;;;2.90;;
4309;SDS011;2168;53.576;9.980;2022-11-20T06:06:31;7.30;;;3.33;;
4309;SDS011;2168;53.576;9.980;2022-11-20T06:08:57;3.80;;;3.50;;
4309;SDS011;2168;53.576;9.980;2022-11-20T06:11:24;5.30;;;3.67;;
4309;SDS011;2168;53.576;9.980;2022-11-20T06:13:49;8.27;;;4.97;;
4309;SDS011;2168;53.576;9.980;2022-11-20T06:16:15;6.57;;;4.30;;
4309;SDS011;2168;53.576;9.980;2022-11-20T06:18:41;6.00;;;3.97;;
4309;SDS011;2168;53.576;9.980;2022-11-20T06:21:07;4.93;;;4.43;;
4309;SDS011;2168;53.576;9.980;2022-11-20T06:23:33;8.40;;;6.00;;
4309;SDS011;2168;53.576;9.980;2022-11-20T06:26:06;7.83;;;5.33;;
4309;SDS011;2168;53.576;9.980;2022-11-20T06:28:32;6.13;;;5.13;;
4309;SDS011;2168;53.576;9.980;2022-11-20T06:30:57;7.30;;;4.93;;
4309;SDS011;2168;53.576;9.980;2022-11-20T06:33:22;6.80;;;5.80;;
4309;SDS011;2168;53.576;9.980;2022-11-20T06:35:48;7.57;;;5.07;;
4309;SDS011;2168;53.576;9.980;2022-11-20T06:38:13;8.23;;;5.80;;
4309;SDS011;2168;53.576;9.980;2022-11-20T06:40:41;7.43;;;5.53;;
4309;SDS011;2168;53.576;9.980;2022-11-20T06:43:07;7.23;;;5.40;;
4309;SDS011;2168;53.576;9.980;2022-11-20T06:45:32;6.50;;;5.10;;
4309;SDS011;2168;53.576;9.980;2022-11-20T06:47:58;5.13;;;4.50;;
4309;SDS011;2168;53.576;9.980;2022-11-20T06:50:23;4.00;;;3.60;;
4309;SDS011;2168;53.576;9.980;2022-11-20T06:52:48;5.13;;;3.50;;
4309;SDS011;2168;53.576;9.980;2022-11-20T06:55:13;6.90;;;4.10;;
4309;SDS011;2168;53.576;9.980;2022-11-20T06:57:38;4.13;;;3.70;;
4309;SDS011;2168;53.576;9.980;2022-11-20T07:00:04;7.33;;;3.57;;
4309;SDS011;2168;53.576;9.980;2022-11-20T07:02:29;5.23;;;3.43;;
4309;SDS011;2168;53.576;9.980;2022-11-20T07:04:54;5.83;;;3.60;;
4309;SDS011;2168;53.576;9.980;2022-11-20T07:07:19;3.67;;;3.00;;
4309;SDS011;2168;53.576;9.980;2022-11-20T07:09:45;3.37;;;3.07;;
4309;SDS011;2168;53.576;9.980;2022-11-20T07:12:10;3.33;;;3.03;;
4309;SDS011;2168;53.576;9.980;2022-11-20T07:14:35;7.50;;;3.20;;
4309;SDS011;2168;53.576;9.980;2022-11-20T07:17:00;4.57;;;3.63;;
4309;SDS011;2168;53.576;9.980;2022-11-20T07:19:25;3.60;;;3.03;;
4309;SDS011;2168;53.576;9.980;2022-11-20T07:21:51;4.10;;;3.53;;
4309;SDS011;2168;53.576;9.980;2022-11-20T07:24:16;5.60;;;3.17;;
4309;SDS011;2168;53.576;9.980;2022-11-20T07:26:41;3.97;;;3.10;;
4309;SDS011;2168;53.576;9.980;2022-11-20T07:29:06;5.77;;;2.70;;
4309;SDS011;2168;53.576;9.980;2022-11-20T07:31:31;3.30;;;3.00;;
4309;SDS011;2168;53.576;9.980;2022-11-20T07:33:57;4.73;;;2.77;;
4309;SDS011;2168;53.576;9.980;2022-11-20T07:36:22;7.00;;;3.33;;
4309;SDS011;2168;53.576;9.980;2022-11-20T07:38:47;3.83;;;3.30;;
4309;SDS011;2168;53.576;9.980;2022-11-20T07:41:12;3.63;;;3.33;;
4309;SDS011;2168;53.576;9.980;2022-11-20T07:43:37;4.27;;;3.80;;
4309;SDS011;2168;53.576;9.980;2022-11-20T07:46:03;3.20;;;2.90;;
4309;SDS011;2168;53.576;9.980;2022-11-20T07:48:29;2.77;;;2.43;;
4309;SDS011;2168;53.576;9.980;2022-11-20T07:50:55;9.63;;;5.20;;
4309;SDS011;2168;53.576;9.980;2022-11-20T07:53:20;3.43;;;3.13;;
4309;SDS011;2168;53.576;9.980;2022-11-20T07:55:46;5.23;;;3.70;;
4309;SDS011;2168;53.576;9.980;2022-11-20T07:58:12;4.23;;;3.83;;
4309;SDS011;2168;53.576;9.980;2022-11-20T08:00:37;5.53;;;3.30;;
4309;SDS011;2168;53.576;9.980;2022-11-20T08:03:03;3.80;;;3.40;;
4309;SDS011;2168;53.576;9.980;2022-11-20T08:05:28;3.07;;;2.87;;
4309;SDS011;2168;53.576;9.980;2022-11-20T08:07:54;6.00;;;3.23;;
4309;SDS011;2168;53.576;9.980;2022-11-20T08:10:19;3.57;;;3.27;;
4309;SDS011;2168;53.576;9.980;2022-11-20T08:12:48;3.77;;;3.37;;
4309;SDS011;2168;53.576;9.980;2022-11-20T08:15:32;3.43;;;3.17;;
4309;SDS011;2168;53.576;9.980;2022-11-20T08:18:01;4.00;;;3.60;;
4309;SDS011;2168;53.576;9.980;2022-11-20T08:20:26;2.63;;;2.43;;
4309;SDS011;2168;53.576;9.980;2022-11-20T08:22:52;2.90;;;2.70;;
4309;SDS011;2168;53.576;9.980;2022-11-20T08:25:17;3.83;;;2.90;;
4309;SDS011;2168;53.576;9.980;2022-11-20T08:27:43;6.03;;;2.90;;
4309;SDS011;2168;53.576;9.980;2022-11-20T08:30:08;3.37;;;3.07;;
4309;SDS011;2168;53.576;9.980;2022-11-20T08:32:34;4.10;;;3.70;;
4309;SDS011;2168;53.576;9.980;2022-11-20T08:35:02;3.60;;;3.07;;
4309;SDS011;2168;53.576;9.980;2022-11-20T08:37:27;2.77;;;2.47;;
4309;SDS011;2168;53.576;9.980;2022-11-20T08:39:52;2.70;;;2.50;;
4309;SDS011;2168;53.576;9.980;2022-11-20T08:42:18;2.87;;;2.67;;
4309;SDS011;2168;53.576;9.980;2022-11-20T08:44:43;2.90;;;2.70;;
4309;SDS011;2168;53.576;9.980;2022-11-20T08:47:09;2.67;;;2.47;;
4309;SDS011;2168;53.576;9.980;2022-11-20T08:49:34;2.83;;;2.50;;
4309;SDS011;2168;53.576;9.980;2022-11-20T08:51:59;3.30;;;2.93;;
4309;SDS011;2168;53.576;9.980;2022-11-20T08:54:24;3.17;;;2.57;;
4309;SDS011;2168;53.576;9.980;2022-11-20T08:56:49;4.00;;;3.47;;
4309;SDS011;2168;53.576;9.980;2022-11-20T08:59:14;18.83;;;2.57;;
4309;SDS011;2168;53.576;9.980;2022-11-20T09:01:40;3.50;;;2.57;;
4309;SDS011;2168;53.576;9.980;2022-11-20T09:04:05;2.50;;;2.10;;
4309;SDS011;2168;53.576;9.980;2022-11-20T09:06:30;2.80;;;2.60;;
4309;SDS011;2168;53.576;9.980;2022-11-20T09:08:55;2.30;;;2.17;;
4309;SDS011;2168;53.576;9.980;2022-11-20T09:11:21;2.33;;;2.23;;
4309;SDS011;2168;53.576;9.980;2022-11-20T09:13:47;3.37;;;3.07;;
4309;SDS011;2168;53.576;9.980;2022-11-20T09:16:12;6.00;;;2.33;;
4309;SDS011;2168;53.576;9.980;2022-11-20T09:18:37;2.23;;;2.10;;
4309;SDS011;2168;53.576;9.980;2022-11-20T09:21:04;2.50;;;2.30;;
4309;SDS011;2168;53.576;9.980;2022-11-20T09:23:33;1.93;;;1.83;;
4309;SDS011;2168;53.576;9.980;2022-11-20T09:26:05;4.10;;;2.73;;
4309;SDS011;2168;53.576;9.980;2022-11-20T09:28:31;2.60;;;2.40;;
4309;SDS011;2168;53.576;9.980;2022-11-20T09:30:56;2.90;;;2.40;;
4309;SDS011;2168;53.576;9.980;2022-11-20T09:33:22;3.33;;;3.07;;
4309;SDS011;2168;53.576;9.980;2022-11-20T09:35:47;3.87;;;3.43;;
4309;SDS011;2168;53.576;9.980;2022-11-20T09:38:12;2.70;;;2.50;;
4309;SDS011;2168;53.576;9.980;2022-11-20T09:40:40;3.17;;;2.83;;
4309;SDS011;2168;53.576;9.980;2022-11-20T09:45:45;2.90;;;2.70;;
4309;SDS011;2168;53.576;9.980;2022-11-20T09:53:11;2.90;;;2.70;;
4309;SDS011;2168;53.576;9.980;2022-11-20T09:55:36;3.60;;;3.30;;
4309;SDS011;2168;53.576;9.980;2022-11-20T09:58:02;4.50;;;3.07;;
4309;SDS011;2168;53.576;9.980;2022-11-20T10:00:30;2.50;;;2.30;;
4309;SDS011;2168;53.576;9.980;2022-11-20T10:05:47;2.97;;;2.60;;
4309;SDS011;2168;53.576;9.980;2022-11-20T10:10:45;2.07;;;1.97;;
4309;SDS011;2168;53.576;9.980;2022-11-20T10:15:43;2.43;;;2.23;;
4309;SDS011;2168;53.576;9.980;2022-11-20T10:21:03;2.37;;;2.27;;
4309;SDS011;2168;53.576;9.980;2022-11-20T10:24:36;4.43;;;2.50;;
4309;SDS011;2168;53.576;9.980;2022-11-20T10:26:50;3.27;;;2.73;;
4309;SDS011;2168;53.576;9.980;2022-11-20T10:29:16;2.50;;;2.40;;
4309;SDS011;2168;53.576;9.980;2022-11-20T10:32:04;2.67;;;2.47;;
4309;SDS011;2168;53.576;9.980;2022-11-20T10:37:18;2.57;;;2.37;;
4309;SDS011;2168;53.576;9.980;2022-11-20T10:39:48;2.80;;;2.60;;
4309;SDS011;2168;53.576;9.980;2022-11-20T10:42:16;2.20;;;2.10;;
4309;SDS011;2168;53.576;9.980;2022-11-20T10:44:43;3.60;;;2.37;;
4309;SDS011;2168;53.576;9.980;2022-11-20T10:47:27;2.97;;;2.70;;
4309;SDS011;2168;53.576;9.980;2022-11-20T10:49:55;2.30;;;2.20;;
4309;SDS011;2168;53.576;9.980;2022-11-20T11:00:01;3.30;;;3.00;;
4309;SDS011;2168;53.576;9.980;2022-11-20T11:02:32;2.70;;;2.60;;
4309;SDS011;2168;53.576;9.980;2022-11-20T11:04:58;3.47;;;3.10;;
4309;SDS011;2168;53.576;9.980;2022-11-20T11:07:36;2.60;;;2.40;;
4309;SDS011;2168;53.576;9.980;2022-11-20T11:10:13;2.97;;;2.77;;
4309;SDS011;2168;53.576;9.980;2022-11-20T11:12:42;2.43;;;2.33;;
4309;SDS011;2168;53.576;9.980;2022-11-20T11:15:11;2.40;;;2.30;;
4309;SDS011;2168;53.576;9.980;2022-11-20T11:17:37;2.57;;;2.10;;
4309;SDS011;2168;53.576;9.980;2022-11-20T11:22:42;2.70;;;2.55;;
4309;SDS011;2168;53.576;9.980;2022-11-20T11:25:11;4.33;;;2.80;;
4309;SDS011;2168;53.576;9.980;2022-11-20T11:27:47;2.47;;;2.27;;
4309;SDS011;2168;53.576;9.980;2022-11-20T11:30:13;3.00;;;2.80;;
4309;SDS011;2168;53.576;9.980;2022-11-20T11:32:39;2.40;;;2.20;;
4309;SDS011;2168;53.576;9.980;2022-11-20T11:35:05;2.10;;;2.00;;
4309;SDS011;2168;53.576;9.980;2022-11-20T11:37:34;3.03;;;2.10;;
4309;SDS011;2168;53.576;9.980;2022-11-20T11:40:00;2.83;;;2.57;;
4309;SDS011;2168;53.576;9.980;2022-11-20T11:42:25;2.73;;;2.40;;
4309;SDS011;2168;53.576;9.980;2022-11-20T11:44:53;2.40;;;2.20;;
4309;SDS011;2168;53.576;9.980;2022-11-20T11:47:36;4.10;;;2.60;;
4309;SDS011;2168;53.576;9.980;2022-11-20T11:52:35;2.77;;;2.27;;
4309;SDS011;2168;53.576;9.980;2022-11-20T11:55:03;2.60;;;2.50;;
4309;SDS011;2168;53.576;9.980;2022-11-20T11:57:49;1.37;;;1.37;;
4309;SDS011;2168;53.576;9.980;2022-11-20T12:00:20;2.00;;;1.83;;
4309;SDS011;2168;53.576;9.980;2022-11-20T12:05:24;1.90;;;1.80;;
4309;SDS011;2168;53.576;9.980;2022-11-20T12:10:20;1.80;;;1.70;;
4309;SDS011;2168;53.576;9.980;2022-11-20T12:12:48;2.20;;;2.07;;
4309;SDS011;2168;53.576;9.980;2022-11-20T12:15:16;2.10;;;1.90;;
4309;SDS011;2168;53.576;9.980;2022-11-20T12:20:28;1.70;;;1.60;;
4309;SDS011;2168;53.576;9.980;2022-11-20T12:23:02;1.77;;;1.67;;
4309;SDS011;2168;53.576;9.980;2022-11-20T12:25:33;2.07;;;1.90;;
4309;SDS011;2168;53.576;9.980;2022-11-20T12:28:21;1.63;;;1.53;;
4309;SDS011;2168;53.576;9.980;2022-11-20T12:33:27;1.63;;;1.53;;
4309;SDS011;2168;53.576;9.980;2022-11-20T12:40:54;2.80;;;2.60;;
4309;SDS011;2168;53.576;9.980;2022-11-20T12:46:14;1.87;;;1.80;;
4309;SDS011;2168;53.576;9.980;2022-11-20T12:48:46;1.70;;;1.60;;
4309;SDS011;2168;53.576;9.980;2022-11-20T12:51:19;1.40;;;1.40;;
4309;SDS011;2168;53.576;9.980;2022-11-20T12:59:10;1.27;;;1.20;;
4309;SDS011;2168;53.576;9.980;2022-11-20T13:01:48;1.40;;;1.40;;
4309;SDS011;2168;53.576;9.980;2022-11-20T13:06:46;2.10;;;2.00;;
4309;SDS011;2168;53.576;9.980;2022-11-20T13:09:12;1.90;;;1.80;;
4309;SDS011;2168;53.576;9.980;2022-11-20T13:11:57;1.60;;;1.60;;
4309;SDS011;2168;53.576;9.980;2022-11-20T13:14:34;1.97;;;1.80;;
4309;SDS011;2168;53.576;9.980;2022-11-20T13:17:09;1.93;;;1.70;;
4309;SDS011;2168;53.576;9.980;2022-11-20T13:19:36;2.70;;;1.97;;
4309;SDS011;2168;53.576;9.980;2022-11-20T13:22:01;1.73;;;1.60;;
4309;SDS011;2168;53.576;9.980;2022-11-20T13:24:28;1.50;;;1.40;;
4309;SDS011;2168;53.576;9.980;2022-11-20T13:29:38;1.70;;;1.60;;
4309;SDS011;2168;53.576;9.980;2022-11-20T13:32:18;1.43;;;1.33;;
4309;SDS011;2168;53.576;9.980;2022-11-20T13:34:52;1.70;;;1.60;;
4309;SDS011;2168;53.576;9.980;2022-11-20T13:37:29;1.43;;;1.33;;
4309;SDS011;2168;53.576;9.980;2022-11-20T13:40:04;2.10;;;1.30;;
4309;SDS011;2168;53.576;9.980;2022-11-20T13:42:29;1.90;;;1.77;;
4309;SDS011;2168;53.576;9.980;2022-11-20T13:45:00;1.30;;;1.30;;
4309;SDS011;2168;53.576;9.980;2022-11-20T13:47:26;1.73;;;1.63;;
4309;SDS011;2168;53.576;9.980;2022-11-20T13:49:52;1.77;;;1.67;;
4309;SDS011;2168;53.576;9.980;2022-11-20T14:00:25;1.70;;;1.60;;
4309;SDS011;2168;53.576;9.980;2022-11-20T14:05:31;2.50;;;2.30;;
4309;SDS011;2168;53.576;9.980;2022-11-20T14:07:59;1.43;;;1.43;;
4309;SDS011;2168;53.576;9.980;2022-11-20T14:10:26;1.93;;;1.80;;
4309;SDS011;2168;53.576;9.980;2022-11-20T14:12:51;1.87;;;1.77;;
4309;SDS011;2168;53.576;9.980;2022-11-20T14:15:30;2.40;;;2.30;;
4309;SDS011;2168;53.576;9.980;2022-11-20T14:17:56;20.33;;;4.30;;
4309;SDS011;2168;53.576;9.980;2022-11-20T14:20:22;2.90;;;2.17;;
4309;SDS011;2168;53.576;9.980;2022-11-20T14:22:50;2.43;;;2.20;;
4309;SDS011;2168;53.576;9.980;2022-11-20T14:27:41;2.33;;;2.23;;
4309;SDS011;2168;53.576;9.980;2022-11-20T14:30:14;2.20;;;1.83;;
4309;SDS011;2168;53.576;9.980;2022-11-20T14:32:41;1.87;;;1.77;;
4309;SDS011;2168;53.576;9.980;2022-11-20T14:35:08;3.60;;;2.23;;
4309;SDS011;2168;53.576;9.980;2022-11-20T14:37:36;2.20;;;2.10;;
4309;SDS011;2168;53.576;9.980;2022-11-20T14:40:02;2.70;;;2.50;;
4309;SDS011;2168;53.576;9.980;2022-11-20T14:42:27;2.80;;;2.10;;
4309;SDS011;2168;53.576;9.980;2022-11-20T14:44:57;2.97;;;2.00;;
4309;SDS011;2168;53.576;9.980;2022-11-20T14:47:26;1.80;;;1.70;;
4309;SDS011;2168;53.576;9.980;2022-11-20T14:49:52;2.40;;;2.20;;
4309;SDS011;2168;53.576;9.980;2022-11-20T14:52:19;1.70;;;1.60;;
4309;SDS011;2168;53.576;9.980;2022-11-20T14:54:46;1.83;;;1.73;;
4309;SDS011;2168;53.576;9.980;2022-11-20T14:59:46;1.63;;;1.53;;
4309;SDS011;2168;53.576;9.980;2022-11-20T15:02:11;2.27;;;2.10;;
4309;SDS011;2168;53.576;9.980;2022-11-20T15:07:11;3.00;;;2.80;;
4309;SDS011;2168;53.576;9.980;2022-11-20T15:09:36;2.53;;;2.33;;
4309;SDS011;2168;53.576;9.980;2022-11-20T15:12:01;4.80;;;2.40;;
4309;SDS011;2168;53.576;9.980;2022-11-20T15:14:28;3.03;;;2.47;;
4309;SDS011;2168;53.576;9.980;2022-11-20T15:16:54;2.10;;;1.90;;
4309;SDS011;2168;53.576;9.980;2022-11-20T15:19:23;3.27;;;2.33;;
4309;SDS011;2168;53.576;9.980;2022-11-20T15:21:49;2.53;;;2.33;;
4309;SDS011;2168;53.576;9.980;2022-11-20T15:24:14;2.07;;;1.97;;
4309;SDS011;2168;53.576;9.980;2022-11-20T15:26:40;4.30;;;2.40;;
4309;SDS011;2168;53.576;9.980;2022-11-20T15:29:07;2.63;;;2.43;;
4309;SDS011;2168;53.576;9.980;2022-11-20T15:31:33;3.67;;;2.43;;
4309;SDS011;2168;53.576;9.980;2022-11-20T15:33:59;4.23;;;3.80;;
4309;SDS011;2168;53.576;9.980;2022-11-20T15:36:24;3.33;;;2.50;;
4309;SDS011;2168;53.576;9.980;2022-11-20T15:38:50;3.63;;;3.33;;
4309;SDS011;2168;53.576;9.980;2022-11-20T15:41:15;3.00;;;2.80;;
4309;SDS011;2168;53.576;9.980;2022-11-20T15:43:40;2.63;;;2.43;;
4309;SDS011;2168;53.576;9.980;2022-11-20T15:46:12;2.53;;;2.33;;
4309;SDS011;2168;53.576;9.980;2022-11-20T15:48:39;3.83;;;2.97;;
4309;SDS011;2168;53.576;9.980;2022-11-20T15:53:36;3.03;;;2.83;;
4309;SDS011;2168;53.576;9.980;2022-11-20T15:56:01;4.60;;;3.13;;
4309;SDS011;2168;53.576;9.980;2022-11-20T15:58:27;3.40;;;3.10;;
4309;SDS011;2168;53.576;9.980;2022-11-20T16:00:52;2.50;;;2.40;;
4309;SDS011;2168;53.576;9.980;2022-11-20T16:03:17;3.50;;;2.97;;
4309;SDS011;2168;53.576;9.980;2022-11-20T16:05:43;5.17;;;2.80;;
4309;SDS011;2168;53.576;9.980;2022-11-20T16:08:08;2.87;;;2.47;;
4309;SDS011;2168;53.576;9.980;2022-11-20T16:10:34;3.50;;;2.77;;
4309;SDS011;2168;53.576;9.980;2022-11-20T16:12:59;2.60;;;2.40;;
4309;SDS011;2168;53.576;9.980;2022-11-20T16:15:44;3.20;;;2.93;;
4309;SDS011;2168;53.576;9.980;2022-11-20T16:18:12;4.10;;;2.67;;
4309;SDS011;2168;53.576;9.980;2022-11-20T16:20:38;2.77;;;2.50;;
4309;SDS011;2168;53.576;9.980;2022-11-20T16:23:04;3.23;;;2.70;;
4309;SDS011;2168;53.576;9.980;2022-11-20T16:25:29;2.90;;;2.70;;
4309;SDS011;2168;53.576;9.980;2022-11-20T16:27:54;2.50;;;2.30;;
4309;SDS011;2168;53.576;9.980;2022-11-20T16:30:20;4.90;;;3.17;;
4309;SDS011;2168;53.576;9.980;2022-11-20T16:32:45;3.00;;;2.77;;
4309;SDS011;2168;53.576;9.980;2022-11-20T16:35:10;4.00;;;2.70;;
4309;SDS011;2168;53.576;9.980;2022-11-20T16:37:35;2.63;;;2.50;;
4309;SDS011;2168;53.576;9.980;2022-11-20T16:40:00;5.10;;;3.00;;
4309;SDS011;2168;53.576;9.980;2022-11-20T16:42:25;3.87;;;3.43;;
4309;SDS011;2168;53.576;9.980;2022-11-20T16:44:51;3.63;;;3.30;;
4309;SDS011;2168;53.576;9.980;2022-11-20T16:47:16;4.43;;;3.30;;